sensor_id;sensor_type;location;lat;lon;timestamp;P1;durP1;ratioP1;P2;durP2;ratioP2
40951;SDS011;26682;51.660;19.338;2023-03-02T00:04:28;173.40;;;79.90;;
40951;SDS011;26682;51.660;19.338;2023-03-02T00:07:13;176.95;;;79.63;;
40951;SDS011;26682;51.660;19.338;2023-03-02T00:10:00;174.45;;;81.97;;
40951;SDS011;26682;51.660;19.338;2023-03-02T00:12:42;167.93;;;78.35;;
40951;SDS011;26682;51.660;19.338;2023-03-02T00:15:25;165.93;;;76.05;;
40951;SDS011;26682;51.660;19.338;2023-03-02T00:18:07;161.40;;;76.53;;
40951;SDS011;26682;51.660;19.338;2023-03-02T00:20:50;163.88;;;75.63;;
40951;SDS011;26682;51.660;19.338;2023-03-02T00:23:32;160.15;;;75.10;;
40951;SDS011;26682;51.660;19.338;2023-03-02T00:26:15;160.27;;;78.82;;
40951;SDS011;26682;51.660;19.338;2023-03-02T00:28:58;181.55;;;83.57;;
40951;SDS011;26682;51.660;19.338;2023-03-02T00:31:41;185.18;;;83.93;;
40951;SDS011;26682;51.660;19.338;2023-03-02T00:34:23;166.63;;;81.70;;
40951;SDS011;26682;51.660;19.338;2023-03-02T00:37:06;170.73;;;79.90;;
40951;SDS011;26682;51.660;19.338;2023-03-02T00:39:50;171.27;;;82.05;;
40951;SDS011;26682;51.660;19.338;2023-03-02T00:42:33;165.48;;;77.22;;
40951;SDS011;26682;51.660;19.338;2023-03-02T00:45:19;157.85;;;77.10;;
40951;SDS011;26682;51.660;19.338;2023-03-02T00:48:02;143.77;;;72.00;;
40951;SDS011;26682;51.660;19.338;2023-03-02T00:50:45;157.25;;;71.43;;
40951;SDS011;26682;51.660;19.338;2023-03-02T00:53:27;148.93;;;71.13;;
40951;SDS011;26682;51.660;19.338;2023-03-02T00:56:09;131.38;;;66.47;;
40951;SDS011;26682;51.660;19.338;2023-03-02T00:58:57;144.52;;;68.72;;
40951;SDS011;26682;51.660;19.338;2023-03-02T01:01:44;138.88;;;68.78;;
40951;SDS011;26682;51.660;19.338;2023-03-02T01:04:40;100.45;;;53.78;;
40951;SDS011;26682;51.660;19.338;2023-03-02T01:07:23;142.40;;;68.75;;
40951;SDS011;26682;51.660;19.338;2023-03-02T01:10:07;158.82;;;75.85;;
40951;SDS011;26682;51.660;19.338;2023-03-02T01:12:50;160.35;;;78.90;;
40951;SDS011;26682;51.660;19.338;2023-03-02T01:15:33;162.10;;;81.35;;
40951;SDS011;26682;51.660;19.338;2023-03-02T01:18:15;205.60;;;97.10;;
40951;SDS011;26682;51.660;19.338;2023-03-02T01:21:01;186.50;;;91.93;;
40951;SDS011;26682;51.660;19.338;2023-03-02T01:23:45;152.38;;;73.80;;
40951;SDS011;26682;51.660;19.338;2023-03-02T01:26:27;166.35;;;80.35;;
40951;SDS011;26682;51.660;19.338;2023-03-02T01:29:10;163.05;;;80.30;;
40951;SDS011;26682;51.660;19.338;2023-03-02T01:31:52;174.30;;;85.32;;
40951;SDS011;26682;51.660;19.338;2023-03-02T01:34:35;185.38;;;90.90;;
40951;SDS011;26682;51.660;19.338;2023-03-02T01:37:18;179.45;;;91.82;;
40951;SDS011;26682;51.660;19.338;2023-03-02T01:40:01;174.63;;;87.35;;
40951;SDS011;26682;51.660;19.338;2023-03-02T01:42:50;178.93;;;86.00;;
40951;SDS011;26682;51.660;19.338;2023-03-02T01:51:39;149.02;;;75.63;;
40951;SDS011;26682;51.660;19.338;2023-03-02T01:54:27;151.57;;;76.72;;
40951;SDS011;26682;51.660;19.338;2023-03-02T01:57:13;152.38;;;77.28;;
40951;SDS011;26682;51.660;19.338;2023-03-02T01:59:57;144.25;;;72.57;;
40951;SDS011;26682;51.660;19.338;2023-03-02T02:02:52;147.13;;;72.55;;
40951;SDS011;26682;51.660;19.338;2023-03-02T02:06:36;141.10;;;73.45;;
40951;SDS011;26682;51.660;19.338;2023-03-02T02:08:58;147.73;;;75.88;;
40951;SDS011;26682;51.660;19.338;2023-03-02T02:11:43;172.82;;;83.68;;
40951;SDS011;26682;51.660;19.338;2023-03-02T02:14:25;188.55;;;90.55;;
40951;SDS011;26682;51.660;19.338;2023-03-02T02:17:08;187.55;;;96.57;;
40951;SDS011;26682;51.660;19.338;2023-03-02T02:26:07;167.68;;;79.88;;
40951;SDS011;26682;51.660;19.338;2023-03-02T02:29:03;251.23;;;116.07;;
40951;SDS011;26682;51.660;19.338;2023-03-02T02:37:38;160.98;;;75.70;;
40951;SDS011;26682;51.660;19.338;2023-03-02T02:43:31;143.50;;;72.03;;
40951;SDS011;26682;51.660;19.338;2023-03-02T02:46:14;147.43;;;72.32;;
40951;SDS011;26682;51.660;19.338;2023-03-02T02:48:57;151.90;;;74.75;;
40951;SDS011;26682;51.660;19.338;2023-03-02T02:51:40;150.82;;;71.80;;
40951;SDS011;26682;51.660;19.338;2023-03-02T02:54:23;139.85;;;69.60;;
40951;SDS011;26682;51.660;19.338;2023-03-02T02:57:05;151.70;;;72.15;;
40951;SDS011;26682;51.660;19.338;2023-03-02T02:59:53;144.18;;;73.25;;
40951;SDS011;26682;51.660;19.338;2023-03-02T03:02:40;143.43;;;72.82;;
40951;SDS011;26682;51.660;19.338;2023-03-02T03:05:25;104.10;;;55.08;;
40951;SDS011;26682;51.660;19.338;2023-03-02T03:08:09;158.25;;;82.30;;
40951;SDS011;26682;51.660;19.338;2023-03-02T03:11:13;207.30;;;96.30;;
40951;SDS011;26682;51.660;19.338;2023-03-02T03:16:49;222.80;;;106.57;;
40951;SDS011;26682;51.660;19.338;2023-03-02T03:19:32;259.45;;;120.75;;
40951;SDS011;26682;51.660;19.338;2023-03-02T03:22:15;242.75;;;115.22;;
40951;SDS011;26682;51.660;19.338;2023-03-02T03:25:00;224.48;;;104.55;;
40951;SDS011;26682;51.660;19.338;2023-03-02T03:27:43;206.68;;;101.07;;
40951;SDS011;26682;51.660;19.338;2023-03-02T03:30:26;213.95;;;103.88;;
40951;SDS011;26682;51.660;19.338;2023-03-02T03:33:09;210.98;;;100.07;;
40951;SDS011;26682;51.660;19.338;2023-03-02T03:35:53;169.73;;;83.90;;
40951;SDS011;26682;51.660;19.338;2023-03-02T03:38:36;156.15;;;76.90;;
40951;SDS011;26682;51.660;19.338;2023-03-02T03:41:19;133.63;;;69.32;;
40951;SDS011;26682;51.660;19.338;2023-03-02T03:44:01;149.48;;;73.95;;
40951;SDS011;26682;51.660;19.338;2023-03-02T03:46:47;142.45;;;72.72;;
40951;SDS011;26682;51.660;19.338;2023-03-02T03:49:30;135.13;;;70.95;;
40951;SDS011;26682;51.660;19.338;2023-03-02T03:52:13;131.43;;;71.47;;
40951;SDS011;26682;51.660;19.338;2023-03-02T03:54:56;145.38;;;72.93;;
40951;SDS011;26682;51.660;19.338;2023-03-02T03:57:42;127.63;;;66.60;;
40951;SDS011;26682;51.660;19.338;2023-03-02T04:00:26;131.25;;;69.63;;
40951;SDS011;26682;51.660;19.338;2023-03-02T04:03:15;128.55;;;67.15;;
40951;SDS011;26682;51.660;19.338;2023-03-02T04:05:58;126.57;;;67.35;;
40951;SDS011;26682;51.660;19.338;2023-03-02T04:08:40;144.98;;;72.72;;
40951;SDS011;26682;51.660;19.338;2023-03-02T04:11:23;141.75;;;72.60;;
40951;SDS011;26682;51.660;19.338;2023-03-02T04:14:06;146.93;;;73.75;;
40951;SDS011;26682;51.660;19.338;2023-03-02T04:16:49;139.30;;;73.55;;
40951;SDS011;26682;51.660;19.338;2023-03-02T04:19:34;140.48;;;72.82;;
40951;SDS011;26682;51.660;19.338;2023-03-02T04:22:18;136.88;;;69.95;;
40951;SDS011;26682;51.660;19.338;2023-03-02T04:25:01;141.65;;;73.88;;
40951;SDS011;26682;51.660;19.338;2023-03-02T04:27:45;163.50;;;83.70;;
40951;SDS011;26682;51.660;19.338;2023-03-02T04:30:29;166.70;;;84.22;;
40951;SDS011;26682;51.660;19.338;2023-03-02T04:33:14;166.23;;;83.70;;
40951;SDS011;26682;51.660;19.338;2023-03-02T04:35:57;154.80;;;79.80;;
40951;SDS011;26682;51.660;19.338;2023-03-02T04:38:40;159.10;;;80.32;;
40951;SDS011;26682;51.660;19.338;2023-03-02T04:41:23;164.43;;;82.70;;
40951;SDS011;26682;51.660;19.338;2023-03-02T04:44:05;176.77;;;92.13;;
40951;SDS011;26682;51.660;19.338;2023-03-02T04:46:48;184.88;;;91.30;;
40951;SDS011;26682;51.660;19.338;2023-03-02T04:49:31;177.02;;;88.90;;
40951;SDS011;26682;51.660;19.338;2023-03-02T04:52:13;176.00;;;87.07;;
40951;SDS011;26682;51.660;19.338;2023-03-02T04:54:55;174.35;;;88.38;;
40951;SDS011;26682;51.660;19.338;2023-03-02T04:57:38;175.10;;;91.35;;
40951;SDS011;26682;51.660;19.338;2023-03-02T05:00:21;191.05;;;95.28;;
40951;SDS011;26682;51.660;19.338;2023-03-02T05:03:04;213.98;;;112.15;;
40951;SDS011;26682;51.660;19.338;2023-03-02T05:05:46;235.70;;;117.43;;
40951;SDS011;26682;51.660;19.338;2023-03-02T05:08:29;221.07;;;112.18;;
40951;SDS011;26682;51.660;19.338;2023-03-02T05:11:13;217.63;;;109.72;;
40951;SDS011;26682;51.660;19.338;2023-03-02T05:14:06;205.05;;;102.90;;
40951;SDS011;26682;51.660;19.338;2023-03-02T05:16:50;210.00;;;103.70;;
40951;SDS011;26682;51.660;19.338;2023-03-02T05:19:33;196.48;;;98.72;;
40951;SDS011;26682;51.660;19.338;2023-03-02T05:22:16;185.02;;;95.38;;
40951;SDS011;26682;51.660;19.338;2023-03-02T05:24:58;190.60;;;97.47;;
40951;SDS011;26682;51.660;19.338;2023-03-02T05:27:41;199.75;;;99.68;;
40951;SDS011;26682;51.660;19.338;2023-03-02T05:30:23;207.63;;;105.75;;
40951;SDS011;26682;51.660;19.338;2023-03-02T05:33:06;220.50;;;107.90;;
40951;SDS011;26682;51.660;19.338;2023-03-02T05:35:49;380.58;;;180.95;;
40951;SDS011;26682;51.660;19.338;2023-03-02T05:38:32;288.13;;;136.68;;
40951;SDS011;26682;51.660;19.338;2023-03-02T05:41:15;257.90;;;124.80;;
40951;SDS011;26682;51.660;19.338;2023-03-02T05:43:57;304.70;;;136.23;;
40951;SDS011;26682;51.660;19.338;2023-03-02T05:46:40;252.15;;;119.05;;
40951;SDS011;26682;51.660;19.338;2023-03-02T05:49:23;203.75;;;101.00;;
40951;SDS011;26682;51.660;19.338;2023-03-02T05:52:05;194.90;;;100.32;;
40951;SDS011;26682;51.660;19.338;2023-03-02T05:54:48;193.15;;;97.03;;
40951;SDS011;26682;51.660;19.338;2023-03-02T05:57:30;199.35;;;97.72;;
40951;SDS011;26682;51.660;19.338;2023-03-02T06:00:14;205.52;;;96.85;;
40951;SDS011;26682;51.660;19.338;2023-03-02T06:02:58;201.73;;;99.75;;
40951;SDS011;26682;51.660;19.338;2023-03-02T06:05:40;196.70;;;100.18;;
40951;SDS011;26682;51.660;19.338;2023-03-02T06:08:24;210.93;;;104.68;;
40951;SDS011;26682;51.660;19.338;2023-03-02T06:11:06;215.20;;;113.70;;
40951;SDS011;26682;51.660;19.338;2023-03-02T06:13:49;208.77;;;110.38;;
40951;SDS011;26682;51.660;19.338;2023-03-02T06:16:32;205.23;;;106.53;;
40951;SDS011;26682;51.660;19.338;2023-03-02T06:19:15;198.35;;;103.85;;
40951;SDS011;26682;51.660;19.338;2023-03-02T06:21:58;197.63;;;103.85;;
40951;SDS011;26682;51.660;19.338;2023-03-02T06:24:40;219.25;;;112.18;;
40951;SDS011;26682;51.660;19.338;2023-03-02T06:27:23;246.27;;;123.25;;
40951;SDS011;26682;51.660;19.338;2023-03-02T06:30:06;209.20;;;108.38;;
40951;SDS011;26682;51.660;19.338;2023-03-02T06:32:50;188.65;;;100.05;;
40951;SDS011;26682;51.660;19.338;2023-03-02T06:35:33;185.38;;;100.85;;
40951;SDS011;26682;51.660;19.338;2023-03-02T06:38:15;213.48;;;112.05;;
40951;SDS011;26682;51.660;19.338;2023-03-02T06:40:58;233.95;;;117.82;;
40951;SDS011;26682;51.660;19.338;2023-03-02T06:43:41;241.80;;;121.47;;
40951;SDS011;26682;51.660;19.338;2023-03-02T06:46:23;241.00;;;123.60;;
40951;SDS011;26682;51.660;19.338;2023-03-02T06:49:06;192.13;;;101.13;;
40951;SDS011;26682;51.660;19.338;2023-03-02T06:51:49;182.85;;;97.53;;
40951;SDS011;26682;51.660;19.338;2023-03-02T06:54:32;169.32;;;93.63;;
40951;SDS011;26682;51.660;19.338;2023-03-02T06:57:14;181.93;;;101.28;;
40951;SDS011;26682;51.660;19.338;2023-03-02T06:59:57;222.32;;;123.22;;
40951;SDS011;26682;51.660;19.338;2023-03-02T07:02:39;233.68;;;129.13;;
40951;SDS011;26682;51.660;19.338;2023-03-02T07:05:22;232.23;;;129.52;;
40951;SDS011;26682;51.660;19.338;2023-03-02T07:08:05;219.68;;;125.57;;
40951;SDS011;26682;51.660;19.338;2023-03-02T07:10:48;195.98;;;112.05;;
40951;SDS011;26682;51.660;19.338;2023-03-02T07:13:30;182.02;;;104.13;;
40951;SDS011;26682;51.660;19.338;2023-03-02T07:16:13;178.55;;;103.40;;
40951;SDS011;26682;51.660;19.338;2023-03-02T07:18:56;255.50;;;139.88;;
40951;SDS011;26682;51.660;19.338;2023-03-02T07:21:39;255.90;;;145.20;;
40951;SDS011;26682;51.660;19.338;2023-03-02T07:24:21;394.73;;;215.85;;
40951;SDS011;26682;51.660;19.338;2023-03-02T07:27:04;376.27;;;209.82;;
40951;SDS011;26682;51.660;19.338;2023-03-02T07:29:47;375.10;;;203.55;;
40951;SDS011;26682;51.660;19.338;2023-03-02T07:32:29;331.48;;;173.95;;
40951;SDS011;26682;51.660;19.338;2023-03-02T07:35:12;282.25;;;150.38;;
40951;SDS011;26682;51.660;19.338;2023-03-02T07:37:54;290.25;;;148.48;;
40951;SDS011;26682;51.660;19.338;2023-03-02T07:40:40;281.23;;;150.73;;
40951;SDS011;26682;51.660;19.338;2023-03-02T07:46:07;269.10;;;140.30;;
40951;SDS011;26682;51.660;19.338;2023-03-02T07:48:50;258.80;;;146.98;;
40951;SDS011;26682;51.660;19.338;2023-03-02T07:51:32;261.80;;;146.98;;
40951;SDS011;26682;51.660;19.338;2023-03-02T07:54:15;248.25;;;137.52;;
40951;SDS011;26682;51.660;19.338;2023-03-02T07:56:58;251.05;;;136.82;;
40951;SDS011;26682;51.660;19.338;2023-03-02T07:59:41;259.35;;;142.30;;
40951;SDS011;26682;51.660;19.338;2023-03-02T08:02:24;251.70;;;143.48;;
40951;SDS011;26682;51.660;19.338;2023-03-02T08:05:08;260.73;;;145.35;;
40951;SDS011;26682;51.660;19.338;2023-03-02T08:07:51;266.45;;;149.02;;
40951;SDS011;26682;51.660;19.338;2023-03-02T08:10:34;265.90;;;149.20;;
40951;SDS011;26682;51.660;19.338;2023-03-02T08:13:17;259.38;;;148.50;;
40951;SDS011;26682;51.660;19.338;2023-03-02T08:16:00;257.52;;;142.68;;
40951;SDS011;26682;51.660;19.338;2023-03-02T08:18:44;220.18;;;125.40;;
40951;SDS011;26682;51.660;19.338;2023-03-02T08:21:27;206.02;;;118.00;;
40951;SDS011;26682;51.660;19.338;2023-03-02T08:24:11;206.38;;;117.15;;
40951;SDS011;26682;51.660;19.338;2023-03-02T08:26:54;253.77;;;136.75;;
40951;SDS011;26682;51.660;19.338;2023-03-02T08:29:37;204.45;;;117.30;;
40951;SDS011;26682;51.660;19.338;2023-03-02T08:32:20;186.13;;;109.47;;
40951;SDS011;26682;51.660;19.338;2023-03-02T08:35:03;203.27;;;113.45;;
40951;SDS011;26682;51.660;19.338;2023-03-02T08:37:46;192.20;;;108.75;;
40951;SDS011;26682;51.660;19.338;2023-03-02T08:40:29;173.20;;;98.10;;
40951;SDS011;26682;51.660;19.338;2023-03-02T08:43:11;163.68;;;92.95;;
40951;SDS011;26682;51.660;19.338;2023-03-02T08:45:54;156.00;;;88.28;;
40951;SDS011;26682;51.660;19.338;2023-03-02T08:48:40;154.30;;;91.32;;
40951;SDS011;26682;51.660;19.338;2023-03-02T08:51:23;152.32;;;90.50;;
40951;SDS011;26682;51.660;19.338;2023-03-02T08:54:06;151.27;;;83.20;;
40951;SDS011;26682;51.660;19.338;2023-03-02T08:56:49;137.70;;;74.90;;
40951;SDS011;26682;51.660;19.338;2023-03-02T08:59:32;123.07;;;71.20;;
40951;SDS011;26682;51.660;19.338;2023-03-02T09:02:14;123.53;;;72.15;;
40951;SDS011;26682;51.660;19.338;2023-03-02T09:04:59;127.28;;;72.80;;
40951;SDS011;26682;51.660;19.338;2023-03-02T09:07:41;123.35;;;71.50;;
40951;SDS011;26682;51.660;19.338;2023-03-02T09:10:24;126.18;;;74.55;;
40951;SDS011;26682;51.660;19.338;2023-03-02T09:13:07;122.38;;;71.25;;
40951;SDS011;26682;51.660;19.338;2023-03-02T09:15:49;123.15;;;70.57;;
40951;SDS011;26682;51.660;19.338;2023-03-02T09:18:32;134.32;;;75.60;;
40951;SDS011;26682;51.660;19.338;2023-03-02T09:21:15;129.98;;;74.18;;
40951;SDS011;26682;51.660;19.338;2023-03-02T09:23:58;128.07;;;72.43;;
40951;SDS011;26682;51.660;19.338;2023-03-02T09:26:40;124.82;;;73.22;;
40951;SDS011;26682;51.660;19.338;2023-03-02T09:29:23;137.98;;;86.18;;
40951;SDS011;26682;51.660;19.338;2023-03-02T09:32:05;151.00;;;87.43;;
40951;SDS011;26682;51.660;19.338;2023-03-02T09:34:48;153.02;;;93.38;;
40951;SDS011;26682;51.660;19.338;2023-03-02T09:37:31;152.00;;;91.57;;
40951;SDS011;26682;51.660;19.338;2023-03-02T09:40:21;158.82;;;91.43;;
40951;SDS011;26682;51.660;19.338;2023-03-02T09:43:11;149.25;;;88.90;;
40951;SDS011;26682;51.660;19.338;2023-03-02T09:48:46;158.88;;;93.40;;
40951;SDS011;26682;51.660;19.338;2023-03-02T09:51:53;156.35;;;90.38;;
40951;SDS011;26682;51.660;19.338;2023-03-02T09:54:41;177.35;;;91.70;;
40951;SDS011;26682;51.660;19.338;2023-03-02T09:57:25;145.75;;;84.00;;
40951;SDS011;26682;51.660;19.338;2023-03-02T10:00:25;121.45;;;76.70;;
40951;SDS011;26682;51.660;19.338;2023-03-02T10:03:18;131.38;;;78.95;;
40951;SDS011;26682;51.660;19.338;2023-03-02T10:06:03;126.18;;;75.28;;
40951;SDS011;26682;51.660;19.338;2023-03-02T10:08:46;138.35;;;74.38;;
40951;SDS011;26682;51.660;19.338;2023-03-02T10:14:27;122.22;;;73.57;;
40951;SDS011;26682;51.660;19.338;2023-03-02T10:20:11;112.68;;;72.07;;
40951;SDS011;26682;51.660;19.338;2023-03-02T10:23:45;119.18;;;72.80;;
40951;SDS011;26682;51.660;19.338;2023-03-02T10:26:28;129.73;;;73.63;;
40951;SDS011;26682;51.660;19.338;2023-03-02T10:32:35;153.40;;;87.93;;
40951;SDS011;26682;51.660;19.338;2023-03-02T10:35:29;146.20;;;81.15;;
40951;SDS011;26682;51.660;19.338;2023-03-02T10:38:16;119.22;;;71.32;;
40951;SDS011;26682;51.660;19.338;2023-03-02T10:41:04;116.07;;;68.10;;
40951;SDS011;26682;51.660;19.338;2023-03-02T10:43:51;128.00;;;68.00;;
40951;SDS011;26682;51.660;19.338;2023-03-02T10:46:42;124.65;;;65.75;;
40951;SDS011;26682;51.660;19.338;2023-03-02T10:52:17;92.90;;;56.53;;
40951;SDS011;26682;51.660;19.338;2023-03-02T10:55:05;112.13;;;58.03;;
40951;SDS011;26682;51.660;19.338;2023-03-02T10:57:58;110.60;;;55.42;;
40951;SDS011;26682;51.660;19.338;2023-03-02T11:01:05;87.18;;;53.35;;
40951;SDS011;26682;51.660;19.338;2023-03-02T11:03:58;84.97;;;53.40;;
40951;SDS011;26682;51.660;19.338;2023-03-02T11:06:42;84.72;;;52.35;;
40951;SDS011;26682;51.660;19.338;2023-03-02T11:09:24;88.75;;;49.45;;
40951;SDS011;26682;51.660;19.338;2023-03-02T11:12:14;102.60;;;47.28;;
40951;SDS011;26682;51.660;19.338;2023-03-02T11:15:46;104.75;;;54.80;;
40951;SDS011;26682;51.660;19.338;2023-03-02T11:18:17;110.78;;;55.13;;
40951;SDS011;26682;51.660;19.338;2023-03-02T11:21:10;138.73;;;56.95;;
40951;SDS011;26682;51.660;19.338;2023-03-02T11:24:06;95.90;;;50.28;;
40951;SDS011;26682;51.660;19.338;2023-03-02T11:27:35;86.13;;;48.28;;
40951;SDS011;26682;51.660;19.338;2023-03-02T11:30:12;79.15;;;46.40;;
40951;SDS011;26682;51.660;19.338;2023-03-02T11:38:49;75.15;;;44.72;;
40951;SDS011;26682;51.660;19.338;2023-03-02T11:41:35;80.35;;;45.30;;
40951;SDS011;26682;51.660;19.338;2023-03-02T11:44:20;75.63;;;47.15;;
40951;SDS011;26682;51.660;19.338;2023-03-02T11:47:06;84.07;;;49.58;;
40951;SDS011;26682;51.660;19.338;2023-03-02T11:49:55;82.15;;;53.10;;
40951;SDS011;26682;51.660;19.338;2023-03-02T11:52:54;104.32;;;55.35;;
40951;SDS011;26682;51.660;19.338;2023-03-02T11:55:42;92.15;;;51.10;;
40951;SDS011;26682;51.660;19.338;2023-03-02T11:58:29;86.60;;;56.13;;
40951;SDS011;26682;51.660;19.338;2023-03-02T12:01:16;89.82;;;56.67;;
40951;SDS011;26682;51.660;19.338;2023-03-02T12:04:10;88.75;;;55.40;;
40951;SDS011;26682;51.660;19.338;2023-03-02T12:07:18;88.20;;;55.67;;
40951;SDS011;26682;51.660;19.338;2023-03-02T12:10:19;95.18;;;56.97;;
40951;SDS011;26682;51.660;19.338;2023-03-02T12:13:19;92.90;;;57.00;;
40951;SDS011;26682;51.660;19.338;2023-03-02T12:22:00;94.57;;;56.53;;
40951;SDS011;26682;51.660;19.338;2023-03-02T12:24:46;86.38;;;55.25;;
40951;SDS011;26682;51.660;19.338;2023-03-02T12:27:39;90.05;;;56.80;;
40951;SDS011;26682;51.660;19.338;2023-03-02T12:30:24;86.65;;;54.63;;
40951;SDS011;26682;51.660;19.338;2023-03-02T12:35:59;96.10;;;55.20;;
40951;SDS011;26682;51.660;19.338;2023-03-02T12:38:56;85.53;;;53.03;;
40951;SDS011;26682;51.660;19.338;2023-03-02T12:48:28;85.80;;;52.65;;
40951;SDS011;26682;51.660;19.338;2023-03-02T12:51:18;90.72;;;55.90;;
40951;SDS011;26682;51.660;19.338;2023-03-02T12:54:11;92.63;;;57.50;;
40951;SDS011;26682;51.660;19.338;2023-03-02T12:57:04;102.10;;;60.20;;
40951;SDS011;26682;51.660;19.338;2023-03-02T13:00:00;100.75;;;60.58;;
40951;SDS011;26682;51.660;19.338;2023-03-02T13:02:49;103.32;;;60.42;;
40951;SDS011;26682;51.660;19.338;2023-03-02T13:05:33;95.80;;;58.10;;
40951;SDS011;26682;51.660;19.338;2023-03-02T13:08:19;93.68;;;56.00;;
40951;SDS011;26682;51.660;19.338;2023-03-02T13:11:06;97.80;;;58.17;;
40951;SDS011;26682;51.660;19.338;2023-03-02T13:13:49;98.38;;;57.45;;
40951;SDS011;26682;51.660;19.338;2023-03-02T13:16:32;92.20;;;54.90;;
40951;SDS011;26682;51.660;19.338;2023-03-02T13:19:18;110.65;;;60.88;;
40951;SDS011;26682;51.660;19.338;2023-03-02T13:22:01;108.70;;;60.28;;
40951;SDS011;26682;51.660;19.338;2023-03-02T13:24:48;118.18;;;61.10;;
40951;SDS011;26682;51.660;19.338;2023-03-02T13:27:54;102.15;;;58.78;;
40951;SDS011;26682;51.660;19.338;2023-03-02T13:30:41;103.90;;;58.42;;
40951;SDS011;26682;51.660;19.338;2023-03-02T13:33:29;94.63;;;55.58;;
40951;SDS011;26682;51.660;19.338;2023-03-02T13:36:20;97.97;;;55.57;;
40951;SDS011;26682;51.660;19.338;2023-03-02T13:39:21;102.05;;;56.88;;
40951;SDS011;26682;51.660;19.338;2023-03-02T13:42:22;88.80;;;53.47;;
40951;SDS011;26682;51.660;19.338;2023-03-02T13:48:12;91.68;;;53.08;;
40951;SDS011;26682;51.660;19.338;2023-03-02T13:51:00;91.97;;;53.78;;
40951;SDS011;26682;51.660;19.338;2023-03-02T13:54:02;96.68;;;53.83;;
40951;SDS011;26682;51.660;19.338;2023-03-02T13:56:53;100.68;;;58.70;;
40951;SDS011;26682;51.660;19.338;2023-03-02T13:59:39;95.82;;;54.40;;
40951;SDS011;26682;51.660;19.338;2023-03-02T14:02:25;98.85;;;54.67;;
40951;SDS011;26682;51.660;19.338;2023-03-02T14:05:22;102.22;;;56.15;;
40951;SDS011;26682;51.660;19.338;2023-03-02T14:08:07;107.28;;;55.13;;
40951;SDS011;26682;51.660;19.338;2023-03-02T14:10:51;134.25;;;71.82;;
40951;SDS011;26682;51.660;19.338;2023-03-02T14:13:44;107.40;;;57.70;;
40951;SDS011;26682;51.660;19.338;2023-03-02T14:16:33;104.70;;;54.43;;
40951;SDS011;26682;51.660;19.338;2023-03-02T14:19:16;110.53;;;54.67;;
40951;SDS011;26682;51.660;19.338;2023-03-02T14:21:59;107.55;;;55.20;;
40951;SDS011;26682;51.660;19.338;2023-03-02T14:24:42;104.32;;;55.25;;
40951;SDS011;26682;51.660;19.338;2023-03-02T14:27:26;109.57;;;57.20;;
40951;SDS011;26682;51.660;19.338;2023-03-02T14:30:12;108.63;;;56.55;;
40951;SDS011;26682;51.660;19.338;2023-03-02T14:32:59;115.00;;;56.22;;
40951;SDS011;26682;51.660;19.338;2023-03-02T14:35:41;106.55;;;54.85;;
40951;SDS011;26682;51.660;19.338;2023-03-02T14:38:25;113.70;;;55.30;;
40951;SDS011;26682;51.660;19.338;2023-03-02T14:41:12;107.82;;;55.92;;
40951;SDS011;26682;51.660;19.338;2023-03-02T14:44:00;118.35;;;60.15;;
40951;SDS011;26682;51.660;19.338;2023-03-02T14:46:42;123.82;;;61.92;;
40951;SDS011;26682;51.660;19.338;2023-03-02T14:49:26;126.82;;;62.13;;
40951;SDS011;26682;51.660;19.338;2023-03-02T14:52:22;132.10;;;66.53;;
40951;SDS011;26682;51.660;19.338;2023-03-02T14:55:22;132.65;;;69.10;;
40951;SDS011;26682;51.660;19.338;2023-03-02T14:58:17;152.18;;;73.97;;
40951;SDS011;26682;51.660;19.338;2023-03-02T15:01:01;140.65;;;67.80;;
40951;SDS011;26682;51.660;19.338;2023-03-02T15:03:44;143.05;;;69.85;;
40951;SDS011;26682;51.660;19.338;2023-03-02T15:06:29;142.00;;;67.70;;
40951;SDS011;26682;51.660;19.338;2023-03-02T15:09:13;131.60;;;66.45;;
40951;SDS011;26682;51.660;19.338;2023-03-02T15:11:57;124.35;;;65.45;;
40951;SDS011;26682;51.660;19.338;2023-03-02T15:14:39;141.65;;;70.10;;
40951;SDS011;26682;51.660;19.338;2023-03-02T15:17:22;118.07;;;57.92;;
40951;SDS011;26682;51.660;19.338;2023-03-02T15:20:04;128.13;;;63.13;;
40951;SDS011;26682;51.660;19.338;2023-03-02T15:22:48;117.40;;;60.67;;
40951;SDS011;26682;51.660;19.338;2023-03-02T15:25:30;111.95;;;60.00;;
40951;SDS011;26682;51.660;19.338;2023-03-02T15:28:13;116.13;;;57.10;;
40951;SDS011;26682;51.660;19.338;2023-03-02T15:30:56;114.97;;;57.92;;
40951;SDS011;26682;51.660;19.338;2023-03-02T15:33:39;117.55;;;57.25;;
40951;SDS011;26682;51.660;19.338;2023-03-02T15:36:22;126.93;;;61.40;;
40951;SDS011;26682;51.660;19.338;2023-03-02T15:39:06;174.73;;;83.30;;
40951;SDS011;26682;51.660;19.338;2023-03-02T15:41:52;135.88;;;64.00;;
40951;SDS011;26682;51.660;19.338;2023-03-02T15:44:35;120.97;;;61.58;;
40951;SDS011;26682;51.660;19.338;2023-03-02T15:47:17;121.75;;;59.00;;
40951;SDS011;26682;51.660;19.338;2023-03-02T15:50:00;116.72;;;57.50;;
40951;SDS011;26682;51.660;19.338;2023-03-02T15:52:42;124.20;;;66.05;;
40951;SDS011;26682;51.660;19.338;2023-03-02T15:55:25;117.95;;;60.83;;
40951;SDS011;26682;51.660;19.338;2023-03-02T15:58:08;111.80;;;57.53;;
40951;SDS011;26682;51.660;19.338;2023-03-02T16:00:51;141.30;;;68.28;;
40951;SDS011;26682;51.660;19.338;2023-03-02T16:03:37;144.88;;;68.47;;
40951;SDS011;26682;51.660;19.338;2023-03-02T16:06:20;158.40;;;78.55;;
40951;SDS011;26682;51.660;19.338;2023-03-02T16:09:05;144.77;;;73.50;;
40951;SDS011;26682;51.660;19.338;2023-03-02T16:11:48;116.88;;;59.17;;
40951;SDS011;26682;51.660;19.338;2023-03-02T16:14:30;96.00;;;50.20;;
40951;SDS011;26682;51.660;19.338;2023-03-02T16:17:15;98.85;;;50.58;;
40951;SDS011;26682;51.660;19.338;2023-03-02T16:20:00;103.70;;;51.33;;
40951;SDS011;26682;51.660;19.338;2023-03-02T16:22:43;93.90;;;50.33;;
40951;SDS011;26682;51.660;19.338;2023-03-02T16:25:26;103.93;;;48.65;;
40951;SDS011;26682;51.660;19.338;2023-03-02T16:28:10;105.55;;;53.17;;
40951;SDS011;26682;51.660;19.338;2023-03-02T16:30:53;124.72;;;65.97;;
40951;SDS011;26682;51.660;19.338;2023-03-02T16:33:45;156.25;;;81.88;;
40951;SDS011;26682;51.660;19.338;2023-03-02T16:36:28;209.95;;;102.88;;
40951;SDS011;26682;51.660;19.338;2023-03-02T16:39:11;106.57;;;55.97;;
40951;SDS011;26682;51.660;19.338;2023-03-02T16:41:54;101.10;;;54.72;;
40951;SDS011;26682;51.660;19.338;2023-03-02T16:44:37;99.05;;;50.40;;
40951;SDS011;26682;51.660;19.338;2023-03-02T16:47:20;97.25;;;50.92;;
40951;SDS011;26682;51.660;19.338;2023-03-02T16:50:03;87.38;;;47.08;;